createdAt,value
2023-02-03T00:00:24.607Z,2.65
2023-02-03T00:03:27.269Z,1.60
2023-02-03T00:06:31.158Z,2.03
2023-02-03T00:09:33.482Z,1.35
2023-02-03T00:12:35.766Z,1.20
2023-02-03T00:15:39.579Z,1.30
2023-02-03T00:18:41.821Z,1.40
2023-02-03T00:21:44.248Z,1.30
2023-02-03T00:24:46.504Z,1.27
2023-02-03T00:27:48.853Z,1.23
2023-02-03T00:30:54.186Z,0.90
2023-02-03T00:33:57.387Z,1.10
2023-02-03T00:36:59.691Z,1.20
2023-02-03T00:40:02.034Z,0.95
2023-02-03T00:43:04.466Z,1.00
2023-02-03T00:46:09.012Z,1.10
2023-02-03T00:49:11.272Z,1.00
2023-02-03T00:52:13.770Z,0.93
2023-02-03T00:55:16.197Z,1.10
2023-02-03T00:58:18.433Z,1.17
2023-02-03T01:01:22.098Z,0.90
2023-02-03T01:04:25.688Z,0.80
2023-02-03T01:07:31.944Z,0.90
2023-02-03T01:10:34.300Z,1.10
2023-02-03T01:13:38.309Z,1.05
2023-02-03T01:16:45.274Z,0.70
2023-02-03T01:19:48.226Z,0.88
2023-02-03T01:22:50.492Z,0.60
2023-02-03T01:25:52.756Z,0.80
2023-02-03T01:28:56.669Z,1.30
2023-02-03T01:32:00.726Z,0.70
2023-02-03T01:35:03.300Z,0.60
2023-02-03T01:38:05.719Z,0.80
2023-02-03T01:41:10.502Z,0.70
2023-02-03T01:44:35.257Z,1.13
2023-02-03T01:47:41.290Z,0.70
2023-02-03T01:50:43.541Z,0.77
2023-02-03T01:53:46.003Z,0.73
2023-02-03T01:56:55.843Z,0.75
2023-02-03T01:59:59.054Z,1.00
2023-02-03T02:03:05.119Z,1.35
2023-02-03T02:06:08.856Z,0.88
2023-02-03T02:09:11.320Z,0.65
2023-02-03T02:12:13.560Z,0.60
2023-02-03T02:15:15.997Z,0.77
2023-02-03T02:18:32.557Z,0.55
2023-02-03T02:21:48.988Z,1.20
2023-02-03T02:25:28.460Z,0.63
2023-02-03T02:29:00.516Z,0.68
2023-02-03T02:32:11.527Z,0.50
2023-02-03T02:35:18.653Z,0.60
2023-02-03T02:38:29.243Z,0.57
2023-02-03T02:41:35.424Z,0.63
2023-02-03T02:44:41.956Z,0.60
2023-02-03T02:47:45.752Z,0.70
2023-02-03T02:50:49.980Z,0.60
2023-02-03T02:53:54.580Z,0.50
2023-02-03T02:57:00.184Z,0.50
2023-02-03T03:00:05.179Z,0.68
2023-02-03T03:03:13.357Z,0.60
2023-02-03T03:06:18.796Z,1.23
2023-02-03T03:09:22.870Z,0.90
2023-02-03T03:12:27.139Z,0.60
2023-02-03T03:15:31.222Z,0.73
2023-02-03T03:18:37.179Z,0.75
2023-02-03T03:21:43.367Z,0.80
2023-02-03T03:24:49.253Z,0.63
2023-02-03T03:27:55.547Z,0.70
2023-02-03T03:30:58.005Z,0.70
2023-02-03T03:34:01.825Z,0.60
2023-02-03T03:37:09.085Z,0.63
2023-02-03T03:40:17.323Z,0.95
2023-02-03T03:43:21.283Z,0.70
2023-02-03T03:46:26.615Z,0.90
2023-02-03T03:49:30.912Z,1.17
2023-02-03T03:52:35.258Z,0.68
2023-02-03T03:55:39.672Z,0.70
2023-02-03T03:58:45.102Z,1.00
2023-02-03T04:01:48.254Z,0.93
2023-02-03T04:04:52.089Z,0.70
2023-02-03T04:07:54.652Z,0.70
2023-02-03T04:10:56.925Z,0.80
2023-02-03T04:13:59.150Z,0.80
2023-02-03T04:17:01.734Z,0.80
2023-02-03T04:20:06.239Z,0.60
2023-02-03T04:23:09.033Z,0.65
2023-02-03T04:26:11.291Z,0.70
2023-02-03T04:29:13.565Z,0.77
2023-02-03T04:32:15.904Z,0.60
2023-02-03T04:35:19.601Z,0.70
2023-02-03T04:38:21.803Z,0.70
2023-02-03T04:41:24.119Z,0.70
2023-02-03T04:44:26.388Z,0.60
2023-02-03T04:47:28.693Z,0.60
2023-02-03T04:50:32.312Z,0.65
2023-02-03T04:53:35.095Z,0.60
2023-02-03T04:56:38.223Z,0.77
2023-02-03T04:59:40.648Z,0.55
2023-02-03T05:02:42.988Z,0.50
2023-02-03T05:05:46.706Z,0.70
2023-02-03T05:08:49.044Z,0.90
2023-02-03T05:11:51.433Z,0.50
2023-02-03T05:14:53.691Z,0.57
2023-02-03T05:17:56.179Z,0.50
2023-02-03T05:20:59.919Z,0.57
2023-02-03T05:24:03.731Z,0.60
2023-02-03T05:27:06.041Z,0.70
2023-02-03T05:30:10.230Z,0.90
2023-02-03T05:33:12.557Z,0.93
2023-02-03T05:36:16.231Z,0.63
2023-02-03T05:39:18.525Z,0.60
2023-02-03T05:42:20.732Z,0.55
2023-02-03T05:45:23.019Z,0.40
2023-02-03T05:48:25.297Z,0.60
2023-02-03T05:51:28.966Z,0.52
2023-02-03T05:54:31.702Z,1.00
2023-02-03T05:57:33.960Z,0.70
2023-02-03T06:00:36.252Z,0.60
2023-02-03T06:03:38.770Z,0.40
2023-02-03T06:06:42.415Z,0.50
2023-02-03T06:09:44.772Z,0.63
2023-02-03T06:12:47.366Z,0.50
2023-02-03T06:15:49.890Z,0.47
2023-02-03T06:18:52.552Z,0.60
2023-02-03T06:21:56.238Z,1.33
2023-02-03T06:24:58.716Z,0.35
2023-02-03T06:28:01.032Z,0.40
2023-02-03T06:31:04.144Z,0.47
2023-02-03T06:34:06.721Z,0.50
2023-02-03T06:37:10.556Z,0.70
2023-02-03T06:40:13.506Z,0.47
2023-02-03T06:43:16.032Z,0.30
2023-02-03T06:46:18.523Z,0.38
2023-02-03T06:49:20.862Z,0.40
2023-02-03T06:52:24.610Z,0.47
2023-02-03T06:55:26.926Z,0.65
2023-02-03T06:58:29.177Z,0.38
2023-02-03T07:01:31.683Z,0.50
2023-02-03T07:04:34.050Z,0.50
2023-02-03T07:07:39.544Z,0.60
2023-02-03T07:10:41.996Z,0.50
2023-02-03T07:13:44.422Z,0.50
2023-02-03T07:16:46.757Z,0.57
2023-02-03T07:19:49.220Z,0.47
2023-02-03T07:22:53.899Z,0.50
2023-02-03T07:25:59.337Z,0.40
2023-02-03T07:29:04.454Z,0.40
2023-02-03T07:32:06.886Z,0.50
2023-02-03T07:35:09.260Z,0.55
2023-02-03T07:38:12.991Z,0.40
2023-02-03T07:41:17.703Z,0.30
2023-02-03T07:44:20.470Z,0.50
2023-02-03T07:47:22.752Z,0.40
2023-02-03T07:50:25.195Z,0.25
2023-02-03T07:53:29.136Z,0.30
2023-02-03T07:56:32.727Z,0.30
2023-02-03T07:59:35.089Z,0.40
2023-02-03T08:02:37.474Z,0.63
2023-02-03T08:05:40.039Z,0.57
2023-02-03T08:08:43.939Z,0.30
2023-02-03T08:11:46.254Z,0.30
2023-02-03T08:14:48.543Z,0.28
2023-02-03T08:17:50.919Z,0.35
2023-02-03T08:20:53.332Z,0.30
2023-02-03T08:23:56.869Z,0.30
2023-02-03T08:27:00.985Z,0.22
2023-02-03T08:30:04.388Z,0.28
2023-02-03T08:33:06.704Z,0.20
2023-02-03T08:36:11.361Z,0.20
2023-02-03T08:39:15.023Z,0.20
2023-02-03T08:42:17.732Z,0.30
2023-02-03T08:45:20.335Z,0.25
2023-02-03T08:48:22.678Z,0.20
2023-02-03T08:51:24.992Z,0.30
2023-02-03T08:54:28.666Z,0.30
2023-02-03T08:57:32.922Z,0.30
2023-02-03T09:00:35.521Z,0.30
2023-02-03T09:03:38.203Z,0.30
2023-02-03T09:06:40.546Z,0.52
2023-02-03T09:09:44.335Z,0.30
2023-02-03T09:12:46.715Z,0.28
2023-02-03T09:15:49.180Z,0.38
2023-02-03T09:18:51.615Z,0.77
2023-02-03T09:21:53.995Z,1.25
2023-02-03T09:24:58.160Z,0.40
2023-02-03T09:28:01.516Z,0.50
2023-02-03T09:31:05.633Z,0.40
2023-02-03T09:34:08.368Z,0.50
2023-02-03T09:37:10.743Z,0.30
2023-02-03T09:40:19.146Z,0.40
2023-02-03T09:43:32.334Z,0.52
2023-02-03T09:46:38.612Z,0.40
2023-02-03T09:49:42.960Z,0.60
2023-02-03T09:52:45.751Z,0.55
2023-02-03T09:55:49.898Z,0.50
2023-02-03T09:58:52.289Z,0.60
2023-02-03T10:01:58.451Z,0.40
2023-02-03T10:05:06.596Z,0.35
2023-02-03T10:08:15.928Z,0.75
2023-02-03T10:11:25.582Z,0.43
2023-02-03T10:14:38.013Z,0.40
2023-02-03T10:17:41.665Z,0.40
2023-02-03T10:20:47.134Z,0.73
2023-02-03T10:23:51.410Z,0.40
2023-02-03T10:26:55.301Z,0.50
2023-02-03T10:30:00.830Z,0.40
2023-02-03T10:33:10.975Z,0.47
2023-02-03T10:36:20.321Z,0.55
2023-02-03T10:39:30.202Z,0.52
2023-02-03T10:42:53.040Z,0.50
2023-02-03T10:46:06.097Z,0.68
2023-02-03T10:49:09.911Z,0.63
2023-02-03T10:52:26.381Z,0.40
2023-02-03T10:55:31.068Z,0.60
2023-02-03T10:58:35.284Z,0.63
2023-02-03T11:01:42.038Z,0.60
2023-02-03T11:04:44.469Z,0.60
2023-02-03T11:07:47.569Z,0.70
2023-02-03T11:10:49.951Z,0.40
2023-02-03T11:14:12.019Z,0.60
2023-02-03T11:20:18.314Z,1.40
2023-02-03T11:23:23.558Z,0.63
2023-02-03T11:26:29.362Z,0.52
2023-02-03T11:29:34.865Z,0.57
2023-02-03T11:32:39.519Z,0.70
2023-02-03T11:35:54.457Z,0.95
2023-02-03T11:39:27.122Z,0.80
2023-02-03T11:42:30.029Z,0.90
2023-02-03T11:45:38.863Z,0.93
2023-02-03T11:48:48.780Z,1.10
2023-02-03T11:51:55.826Z,1.00
2023-02-03T11:55:04.799Z,1.15
2023-02-03T11:58:19.026Z,1.30
2023-02-03T12:01:33.809Z,1.42
2023-02-03T12:04:46.793Z,1.25
2023-02-03T12:08:07.182Z,1.77
2023-02-03T12:11:16.862Z,1.02
2023-02-03T12:14:31.434Z,1.40
2023-02-03T12:17:47.214Z,1.50
2023-02-03T12:20:59.006Z,1.48
2023-02-03T12:27:16.446Z,1.30
2023-02-03T12:30:22.508Z,1.70
2023-02-03T12:33:28.377Z,1.63
2023-02-03T12:36:34.251Z,1.75
2023-02-03T12:39:40.582Z,1.80
2023-02-03T12:42:47.836Z,1.75
2023-02-03T12:45:53.426Z,1.63
2023-02-03T12:49:00.465Z,1.80
2023-02-03T12:52:09.460Z,1.88
2023-02-03T12:55:20.869Z,2.10
2023-02-03T12:58:25.613Z,2.40
2023-02-03T13:01:32.791Z,1.55
2023-02-03T13:04:43.291Z,1.98
2023-02-03T13:07:48.275Z,2.05
2023-02-03T13:10:54.898Z,2.20
2023-02-03T13:14:00.927Z,2.40
2023-02-03T13:17:08.370Z,2.70
2023-02-03T13:20:15.920Z,2.30
2023-02-03T13:23:18.460Z,2.40
2023-02-03T13:26:53.987Z,2.50
2023-02-03T13:30:06.935Z,2.38
2023-02-03T13:33:35.398Z,2.28
2023-02-03T13:36:46.155Z,3.00
2023-02-03T13:39:59.948Z,2.85
2023-02-03T13:43:06.033Z,3.42
2023-02-03T13:46:18.903Z,2.63
2023-02-03T13:49:25.767Z,2.88
2023-02-03T13:52:34.962Z,3.40
2023-02-03T13:55:40.021Z,3.15
2023-02-03T13:58:42.526Z,2.88
2023-02-03T14:01:45.772Z,2.92
2023-02-03T14:04:54.118Z,3.17
2023-02-03T14:07:57.315Z,3.20
2023-02-03T14:11:37.797Z,2.88
2023-02-03T14:15:04.545Z,3.33
2023-02-03T14:18:31.277Z,2.92
2023-02-03T14:21:39.347Z,2.75
2023-02-03T14:24:45.788Z,2.50
2023-02-03T14:27:49.169Z,2.42
2023-02-03T14:31:17.096Z,2.72
2023-02-03T14:34:29.392Z,2.38
2023-02-03T14:37:32.373Z,2.40
2023-02-03T14:40:40.130Z,2.20
2023-02-03T14:43:44.917Z,2.30
2023-02-03T14:47:09.583Z,1.95
2023-02-03T14:50:26.980Z,1.90
2023-02-03T14:53:41.222Z,1.77
2023-02-03T14:57:05.803Z,1.50
2023-02-03T15:00:27.542Z,1.50
2023-02-03T15:03:31.909Z,1.38
2023-02-03T15:06:39.947Z,1.20
2023-02-03T15:09:45.926Z,1.27
2023-02-03T15:12:49.915Z,1.08
2023-02-03T15:15:53.629Z,1.08
2023-02-03T15:18:59.772Z,1.20
2023-02-03T15:22:03.540Z,0.93
2023-02-03T15:25:17.190Z,0.82
2023-02-03T15:28:21.167Z,0.95
2023-02-03T15:31:27.939Z,0.80
2023-02-03T15:34:35.482Z,1.20
2023-02-03T15:37:44.214Z,0.80
2023-02-03T15:40:48.989Z,0.80
2023-02-03T15:43:54.559Z,0.90
2023-02-03T15:46:57.520Z,0.80
2023-02-03T15:50:05.800Z,0.80
2023-02-03T15:53:10.971Z,0.90
2023-02-03T15:56:19.981Z,1.92
2023-02-03T15:59:25.900Z,0.82
2023-02-03T16:02:30.794Z,1.00
2023-02-03T16:05:35.132Z,0.73
2023-02-03T16:08:42.722Z,0.80
2023-02-03T16:11:45.113Z,1.17
2023-02-03T16:14:47.678Z,1.00
2023-02-03T16:17:55.477Z,0.80
2023-02-03T16:20:59.285Z,1.17
2023-02-03T16:24:02.029Z,1.30
2023-02-03T16:27:21.581Z,0.80
2023-02-03T16:30:43.535Z,1.00
2023-02-03T16:34:05.095Z,1.17
2023-02-03T16:37:31.861Z,1.10
2023-02-03T16:40:52.843Z,1.55
2023-02-03T16:44:13.883Z,1.15
2023-02-03T16:47:43.186Z,1.75
2023-02-03T16:50:57.565Z,1.25
2023-02-03T16:54:03.010Z,0.90
2023-02-03T16:57:05.322Z,1.10
2023-02-03T17:00:11.727Z,0.80
2023-02-03T17:03:15.579Z,1.58
2023-02-03T17:06:18.156Z,0.85
2023-02-03T17:09:24.865Z,0.70
2023-02-03T17:12:30.712Z,0.75
2023-02-03T17:15:33.272Z,1.45
2023-02-03T17:18:35.918Z,1.08
2023-02-03T17:21:39.278Z,0.75
2023-02-03T17:24:42.967Z,0.80
2023-02-03T17:27:45.333Z,0.82
2023-02-03T17:30:56.777Z,1.08
2023-02-03T17:33:59.248Z,0.70
2023-02-03T17:37:01.644Z,0.80
2023-02-03T17:53:26.234Z,1.00
2023-02-03T17:56:30.748Z,0.80
2023-02-03T17:59:35.516Z,1.05
2023-02-03T18:02:37.925Z,0.90
2023-02-03T18:05:40.151Z,0.82
2023-02-03T18:08:43.220Z,0.82
2023-02-03T18:11:46.811Z,0.73
2023-02-03T18:14:49.478Z,1.17
2023-02-03T18:17:51.726Z,0.77
2023-02-03T18:20:54.073Z,0.75
2023-02-03T18:24:01.532Z,0.80
2023-02-03T18:27:05.568Z,1.30
2023-02-03T18:30:11.580Z,1.10
2023-02-03T18:33:14.138Z,1.42
2023-02-03T18:36:16.931Z,1.45
2023-02-03T18:39:19.241Z,0.80
2023-02-03T18:42:22.786Z,1.13
2023-02-03T18:45:24.996Z,0.65
2023-02-03T18:48:27.479Z,0.80
2023-02-03T18:51:29.757Z,1.15
2023-02-03T18:54:32.408Z,1.00
2023-02-03T18:57:36.120Z,0.98
2023-02-03T19:00:39.357Z,0.88
2023-02-03T19:03:42.149Z,1.13
2023-02-03T19:06:45.694Z,0.70
2023-02-03T19:09:47.988Z,1.00
2023-02-03T19:12:51.725Z,1.50
2023-02-03T19:15:54.079Z,1.35
2023-02-03T19:18:56.397Z,0.90
2023-02-03T19:21:58.707Z,1.15
2023-02-03T19:25:01.243Z,1.73
2023-02-03T19:28:06.756Z,1.00
2023-02-03T19:31:11.461Z,1.42
2023-02-03T19:34:14.753Z,1.15
2023-02-03T19:37:27.456Z,1.52
2023-02-03T19:40:34.948Z,1.45
2023-02-03T19:43:40.074Z,1.20
2023-02-03T19:46:42.804Z,1.58
2023-02-03T19:49:45.530Z,1.33
2023-02-03T19:52:51.221Z,1.83
2023-02-03T19:55:53.892Z,1.83
2023-02-03T19:58:58.058Z,2.10
2023-02-03T20:02:13.816Z,1.80
2023-02-03T20:05:19.989Z,2.47
2023-02-03T20:08:25.001Z,2.22
2023-02-03T20:11:27.817Z,2.80
2023-02-03T20:14:37.580Z,2.90
2023-02-03T20:17:43.005Z,2.60
2023-02-03T20:20:52.905Z,2.65
2023-02-03T20:23:55.818Z,2.65
2023-02-03T20:26:58.700Z,2.53
2023-02-03T20:30:04.016Z,2.42
2023-02-03T20:33:09.499Z,2.78
2023-02-03T20:36:16.601Z,2.13
2023-02-03T20:39:27.987Z,1.73
2023-02-03T20:42:37.231Z,1.92
2023-02-03T20:45:41.268Z,1.58
2023-02-03T20:48:44.107Z,1.52
2023-02-03T20:51:48.463Z,1.42
2023-02-03T20:54:51.184Z,1.35
2023-02-03T20:57:57.200Z,1.70
2023-02-03T21:01:03.505Z,1.40
2023-02-03T21:04:30.865Z,1.15
2023-02-03T21:07:33.425Z,1.42
2023-02-03T21:10:38.225Z,0.90
2023-02-03T21:13:42.414Z,1.10
2023-02-03T21:16:47.685Z,0.80
2023-02-03T21:19:54.133Z,0.80
2023-02-03T21:23:17.658Z,1.30
2023-02-03T21:26:26.752Z,1.20
2023-02-03T21:29:43.275Z,1.10
2023-02-03T21:33:24.026Z,0.95
2023-02-03T21:36:28.463Z,0.90
2023-02-03T21:39:38.733Z,0.80
2023-02-03T21:42:44.235Z,0.98
2023-02-03T21:45:50.268Z,1.05
2023-02-03T21:49:01.144Z,1.48
2023-02-03T21:52:13.131Z,1.02
2023-02-03T21:58:35.918Z,0.70
2023-02-03T22:01:48.004Z,0.95
2023-02-03T22:05:13.732Z,0.98
2023-02-03T22:08:20.865Z,0.98
2023-02-03T22:11:37.821Z,1.00
2023-02-03T22:14:46.468Z,1.13
2023-02-03T22:17:50.585Z,1.10
2023-02-03T22:21:03.549Z,1.45
2023-02-03T22:24:15.135Z,0.85
2023-02-03T22:27:24.378Z,1.20
2023-02-03T22:30:30.698Z,0.93
2023-02-03T22:33:41.659Z,1.20
2023-02-03T22:36:47.084Z,1.00
2023-02-03T22:39:50.159Z,0.68
2023-02-03T22:43:03.202Z,1.10
2023-02-03T22:46:06.895Z,0.90
2023-02-03T22:49:10.742Z,1.00
2023-02-03T22:52:15.846Z,1.10
2023-02-03T22:55:21.484Z,1.15
2023-02-03T22:58:33.023Z,1.42
2023-02-03T23:01:35.340Z,1.27
2023-02-03T23:04:37.659Z,1.00
2023-02-03T23:07:41.443Z,1.70
2023-02-03T23:10:43.832Z,0.73
2023-02-03T23:13:46.278Z,0.70
2023-02-03T23:16:48.665Z,1.35
2023-02-03T23:19:53.950Z,1.13
2023-02-03T23:22:57.713Z,1.17
2023-02-03T23:26:00.104Z,1.45
2023-02-03T23:29:06.126Z,0.88
2023-02-03T23:32:10.693Z,0.90
2023-02-03T23:35:31.652Z,0.90
2023-02-03T23:38:36.115Z,0.98
2023-02-03T23:41:38.429Z,1.17
2023-02-03T23:44:40.733Z,1.23
2023-02-03T23:47:44.730Z,1.30
2023-02-03T23:50:47.052Z,1.00
2023-02-03T23:53:50.714Z,0.82
2023-02-03T23:56:52.980Z,0.98
2023-02-03T23:59:55.633Z,0.85
